createdAt,value
2017-11-15T00:00:30.700Z,101947.94
2017-11-15T00:02:58.262Z,101953.91
2017-11-15T00:05:25.926Z,101950.92
2017-11-15T00:07:53.490Z,101956.74
2017-11-15T00:10:21.053Z,101949.97
2017-11-15T00:12:48.613Z,101948.50
2017-11-15T00:15:16.277Z,101948.74
2017-11-15T00:17:43.847Z,101945.47
2017-11-15T00:20:11.425Z,101951.06
2017-11-15T00:22:38.987Z,101952.98
2017-11-15T00:25:06.621Z,101953.52
2017-11-15T00:27:34.187Z,101964.63
2017-11-15T00:30:01.757Z,101960.81
2017-11-15T00:32:29.329Z,101958.42
2017-11-15T00:34:56.898Z,101960.91
2017-11-15T00:37:24.473Z,101963.12
2017-11-15T00:39:52.086Z,101966.69
2017-11-15T00:42:19.654Z,101966.22
2017-11-15T00:44:47.281Z,101964.34
2017-11-15T00:47:14.855Z,101975.59
2017-11-15T00:49:42.422Z,101979.73
2017-11-15T00:52:10.099Z,101976.54
2017-11-15T00:54:37.658Z,101972.84
2017-11-15T00:57:05.234Z,101974.85
2017-11-15T00:59:32.802Z,101975.63
2017-11-15T01:02:00.435Z,101980.95
2017-11-15T01:04:28.106Z,101982.07
2017-11-15T01:06:55.677Z,101989.08
2017-11-15T01:09:23.328Z,101992.87
2017-11-15T01:11:50.898Z,101987.46
2017-11-15T01:14:18.470Z,101988.15
2017-11-15T01:16:46.030Z,101988.20
2017-11-15T01:19:13.633Z,101987.07
2017-11-15T01:21:41.191Z,101989.23
2017-11-15T01:24:08.789Z,101989.13
2017-11-15T01:26:36.375Z,101984.16
2017-11-15T01:29:03.939Z,101983.33
2017-11-15T01:31:31.535Z,101984.28
2017-11-15T01:33:59.100Z,101978.95
2017-11-15T01:36:26.662Z,101990.79
2017-11-15T01:38:54.231Z,101991.25
2017-11-15T01:41:21.799Z,101992.50
2017-11-15T01:43:49.362Z,101988.69
2017-11-15T01:46:16.966Z,101983.92
2017-11-15T01:48:45.034Z,101989.32
2017-11-15T01:51:12.590Z,101986.08
2017-11-15T01:53:40.198Z,101984.21
2017-11-15T01:56:07.758Z,101987.48
2017-11-15T01:58:35.353Z,101993.23
2017-11-15T02:01:13.948Z,101993.73
2017-11-15T02:03:41.546Z,101993.38
2017-11-15T02:06:09.115Z,101988.92
2017-11-15T02:08:36.686Z,101991.64
2017-11-15T02:11:04.327Z,101990.51
2017-11-15T02:13:31.893Z,101987.88
2017-11-15T02:15:59.512Z,101990.82
2017-11-15T02:18:27.104Z,101988.35
2017-11-15T02:20:54.738Z,101990.77
2017-11-15T02:23:22.332Z,101994.77
2017-11-15T02:25:50.709Z,102002.56
2017-11-15T02:28:18.309Z,102001.41
2017-11-15T02:30:46.646Z,102003.67
2017-11-15T02:33:14.842Z,102011.23
2017-11-15T02:35:42.484Z,102014.66
2017-11-15T02:38:10.052Z,102008.91
2017-11-15T02:40:37.715Z,102010.78
2017-11-15T02:43:05.291Z,102003.03
2017-11-15T02:45:32.851Z,102006.11
2017-11-15T02:48:00.417Z,102000.52
2017-11-15T02:50:27.989Z,102003.31
2017-11-15T02:52:55.540Z,102002.73
2017-11-15T02:55:23.172Z,102009.65
2017-11-15T02:57:50.775Z,102004.70
2017-11-15T03:00:19.156Z,102009.95
2017-11-15T03:02:46.718Z,102005.05
2017-11-15T03:05:14.278Z,101990.73
2017-11-15T03:07:41.837Z,101995.01
2017-11-15T03:10:09.564Z,101988.88
2017-11-15T03:12:37.134Z,101997.02
2017-11-15T03:15:04.786Z,101995.45
2017-11-15T03:17:32.389Z,101991.05
2017-11-15T03:20:00.804Z,101994.81
2017-11-15T03:22:28.386Z,101991.66
2017-11-15T03:24:56.966Z,101992.97
2017-11-15T03:27:24.529Z,101993.93
2017-11-15T03:29:52.989Z,101996.15
2017-11-15T03:32:20.545Z,101997.08
2017-11-15T03:34:48.110Z,101995.10
2017-11-15T03:37:15.665Z,101995.69
2017-11-15T03:39:43.242Z,101992.84
2017-11-15T03:42:10.815Z,101986.95
2017-11-15T03:44:39.168Z,101992.58
2017-11-15T03:47:06.740Z,101988.76
2017-11-15T03:49:35.206Z,101989.11
2017-11-15T03:52:02.810Z,101992.16
2017-11-15T03:54:30.373Z,101989.28
2017-11-15T03:56:57.939Z,101996.37
2017-11-15T03:59:25.505Z,101993.55
2017-11-15T04:01:53.074Z,101991.80
2017-11-15T04:04:20.708Z,101985.14
2017-11-15T04:06:48.276Z,101989.92
2017-11-15T04:09:15.845Z,101994.30
2017-11-15T04:11:43.489Z,101999.66
2017-11-15T04:14:12.118Z,101993.27
2017-11-15T04:16:39.681Z,101986.66
2017-11-15T04:19:07.241Z,101992.70
2017-11-15T04:21:34.860Z,101989.72
2017-11-15T04:24:02.425Z,101992.52
2017-11-15T04:26:29.986Z,101988.12
2017-11-15T04:28:57.557Z,101981.47
2017-11-15T04:31:25.125Z,101973.79
2017-11-15T04:33:52.690Z,101975.69
2017-11-15T04:36:20.330Z,101976.36
2017-11-15T04:38:48.684Z,101980.36
2017-11-15T04:41:17.181Z,101981.52
2017-11-15T04:43:44.800Z,101986.63
2017-11-15T04:46:12.361Z,101985.67
2017-11-15T04:48:39.957Z,101990.81
2017-11-15T04:51:07.532Z,101988.88
2017-11-15T04:53:36.007Z,101983.83
2017-11-15T04:56:03.585Z,101986.75
2017-11-15T04:58:31.158Z,101982.85
2017-11-15T05:00:58.721Z,101982.52
2017-11-15T05:03:26.277Z,101987.83
2017-11-15T05:05:53.922Z,101990.40
2017-11-15T05:08:21.520Z,101990.92
2017-11-15T05:10:49.084Z,101994.19
2017-11-15T05:13:16.704Z,101989.51
2017-11-15T05:15:44.269Z,101996.22
2017-11-15T05:18:11.834Z,101999.73
2017-11-15T05:20:39.407Z,102005.42
2017-11-15T05:23:06.988Z,102009.52
2017-11-15T05:25:34.549Z,102005.35
2017-11-15T05:28:03.052Z,102004.89
2017-11-15T05:30:30.660Z,102009.66
2017-11-15T05:32:58.228Z,102010.33
2017-11-15T05:35:26.705Z,102009.11
2017-11-15T05:37:54.277Z,102014.41
2017-11-15T05:40:21.880Z,102010.85
2017-11-15T05:42:49.443Z,102017.95
2017-11-15T05:45:17.006Z,102011.86
2017-11-15T05:47:44.568Z,102014.06
2017-11-15T05:50:12.133Z,102016.29
2017-11-15T05:52:39.690Z,102020.63
2017-11-15T05:55:07.253Z,102019.44
2017-11-15T05:57:34.814Z,102024.12
2017-11-15T06:00:02.370Z,102025.63
2017-11-15T06:02:34.383Z,102019.44
2017-11-15T06:05:02.044Z,102021.20
2017-11-15T06:07:29.697Z,102019.88
2017-11-15T06:09:57.333Z,102026.20
2017-11-15T06:12:24.995Z,102024.52
2017-11-15T06:14:52.577Z,102027.89
2017-11-15T06:17:20.146Z,102031.71
2017-11-15T06:19:47.742Z,102033.38
2017-11-15T06:22:15.309Z,102027.27
2017-11-15T06:24:42.922Z,102035.73
2017-11-15T06:27:10.463Z,102038.07
2017-11-15T06:29:38.101Z,102043.80
2017-11-15T06:32:05.804Z,102049.73
2017-11-15T06:34:33.484Z,102047.97
2017-11-15T06:37:01.058Z,102042.17
2017-11-15T06:39:28.568Z,102041.80
2017-11-15T06:41:56.135Z,102048.83
2017-11-15T06:44:23.701Z,102054.15
2017-11-15T06:46:51.282Z,102055.82
2017-11-15T06:49:18.864Z,102065.33
2017-11-15T06:51:46.516Z,102064.95
2017-11-15T06:54:14.084Z,102061.23
2017-11-15T06:56:41.654Z,102064.01
2017-11-15T06:59:10.005Z,102059.98
2017-11-15T07:01:38.679Z,102065.85
2017-11-15T07:04:06.238Z,102069.98
2017-11-15T07:06:33.838Z,102065.52
2017-11-15T07:09:01.402Z,102076.67
2017-11-15T07:11:29.004Z,102078.80
2017-11-15T07:13:56.565Z,102078.71
2017-11-15T07:16:24.171Z,102077.23
2017-11-15T07:18:51.738Z,102083.36
2017-11-15T07:21:19.382Z,102082.95
2017-11-15T07:23:46.945Z,102072.70
2017-11-15T07:26:14.601Z,102084.06
2017-11-15T07:28:42.205Z,102080.96
2017-11-15T07:31:10.643Z,102081.22
2017-11-15T07:33:38.210Z,102087.90
2017-11-15T07:36:05.776Z,102079.29
2017-11-15T07:38:33.431Z,102078.98
2017-11-15T07:41:01.013Z,102076.91
2017-11-15T07:43:28.660Z,102076.27
2017-11-15T07:45:56.229Z,102085.91
2017-11-15T07:48:23.806Z,102081.91
2017-11-15T07:50:51.433Z,102080.13
2017-11-15T07:53:19.821Z,102082.48
2017-11-15T07:55:48.301Z,102075.75
2017-11-15T07:58:15.870Z,102081.52
2017-11-15T08:00:43.487Z,102079.39
2017-11-15T08:03:11.050Z,102082.69
2017-11-15T08:05:38.614Z,102086.90
2017-11-15T08:08:07.132Z,102095.41
2017-11-15T08:10:34.706Z,102103.98
2017-11-15T08:13:02.273Z,102102.84
2017-11-15T08:15:29.845Z,102105.13
2017-11-15T08:17:57.469Z,102095.98
2017-11-15T08:20:25.032Z,102092.30
2017-11-15T08:22:52.603Z,102097.53
2017-11-15T08:25:20.178Z,102096.38
2017-11-15T08:27:47.812Z,102102.89
2017-11-15T08:30:15.474Z,102102.41
2017-11-15T08:32:43.146Z,102108.28
2017-11-15T08:35:10.727Z,102116.05
2017-11-15T08:37:39.289Z,102112.36
2017-11-15T08:40:06.860Z,102117.16
2017-11-15T08:42:34.438Z,102115.66
2017-11-15T08:45:02.007Z,102120.89
2017-11-15T08:47:29.582Z,102123.80
2017-11-15T08:49:57.183Z,102116.20
2017-11-15T08:52:24.921Z,102121.27
2017-11-15T08:54:52.486Z,102118.45
2017-11-15T08:57:20.117Z,102125.77
2017-11-15T08:59:47.703Z,102126.94
2017-11-15T09:02:15.283Z,102129.11
2017-11-15T09:04:42.855Z,102127.59
2017-11-15T09:07:10.424Z,102120.39
2017-11-15T09:09:37.986Z,102121.98
2017-11-15T09:12:05.607Z,102122.58
2017-11-15T09:14:34.128Z,102130.26
2017-11-15T09:17:01.697Z,102131.50
2017-11-15T09:19:29.262Z,102130.73
2017-11-15T09:21:56.829Z,102126.14
2017-11-15T09:24:24.402Z,102125.86
2017-11-15T09:26:51.979Z,102127.42
2017-11-15T09:29:19.598Z,102128.09
2017-11-15T09:31:47.257Z,102135.16
2017-11-15T09:34:15.464Z,102128.25
2017-11-15T09:36:43.842Z,102130.23
2017-11-15T09:39:11.411Z,102123.86
2017-11-15T09:41:38.978Z,102122.71
2017-11-15T09:44:06.555Z,102116.12
2017-11-15T09:46:34.121Z,102121.14
2017-11-15T09:49:01.685Z,102117.14
2017-11-15T09:51:30.098Z,102118.42
2017-11-15T09:53:57.673Z,102119.81
2017-11-15T09:56:25.241Z,102112.94
2017-11-15T09:58:53.657Z,102103.56
2017-11-15T10:01:21.306Z,102113.12
2017-11-15T10:03:48.922Z,102108.95
2017-11-15T10:06:16.486Z,102106.50
2017-11-15T10:08:44.057Z,102115.21
2017-11-15T10:11:11.789Z,102122.96
2017-11-15T10:13:39.354Z,102116.73
2017-11-15T10:16:06.954Z,102118.10
2017-11-15T10:18:34.530Z,102114.06
2017-11-15T10:21:02.097Z,102114.06
2017-11-15T10:23:29.658Z,102114.36
2017-11-15T10:25:57.269Z,102113.73
2017-11-15T10:28:24.942Z,102111.56
2017-11-15T10:30:52.521Z,102111.63
2017-11-15T10:33:20.098Z,102108.23
2017-11-15T10:35:47.661Z,102108.22
2017-11-15T10:38:15.228Z,102105.93
2017-11-15T10:40:42.825Z,102102.47
2017-11-15T10:43:10.389Z,102099.39
2017-11-15T10:45:38.067Z,102088.85
2017-11-15T10:48:08.534Z,102089.41
2017-11-15T10:50:36.109Z,102091.30
2017-11-15T10:53:03.678Z,102091.55
2017-11-15T10:55:31.254Z,102094.28
2017-11-15T10:57:58.826Z,102090.42
2017-11-15T11:00:32.006Z,102091.69
2017-11-15T11:02:59.582Z,102093.06
2017-11-15T11:05:27.157Z,102098.06
2017-11-15T11:07:54.725Z,102102.89
2017-11-15T11:10:22.305Z,102098.23
2017-11-15T11:12:49.887Z,102101.56
2017-11-15T11:15:17.502Z,102102.59
2017-11-15T11:17:45.836Z,102095.56
2017-11-15T11:20:13.408Z,102094.33
2017-11-15T11:22:41.042Z,102089.75
2017-11-15T11:25:08.626Z,102082.25
2017-11-15T11:27:36.201Z,102084.02
2017-11-15T11:30:04.478Z,102076.03
2017-11-15T11:32:32.066Z,102079.62
2017-11-15T11:34:59.645Z,102083.78
2017-11-15T11:37:27.207Z,102084.75
2017-11-15T11:39:54.790Z,102080.69
2017-11-15T11:42:22.363Z,102067.55
2017-11-15T11:44:49.955Z,102063.22
2017-11-15T11:47:17.518Z,102061.98
2017-11-15T11:49:45.789Z,102071.70
2017-11-15T11:52:13.356Z,102074.03
2017-11-15T11:54:41.821Z,102065.70
2017-11-15T11:57:10.397Z,102060.31
2017-11-15T11:59:37.966Z,102053.34
2017-11-15T12:02:05.540Z,102059.83
2017-11-15T12:04:33.237Z,102062.44
2017-11-15T12:07:00.837Z,102075.29
2017-11-15T12:09:28.410Z,102075.44
2017-11-15T12:11:56.914Z,102070.16
2017-11-15T12:14:24.477Z,102074.45
2017-11-15T12:16:52.858Z,102068.70
2017-11-15T12:19:21.118Z,102067.54
2017-11-15T12:21:48.705Z,102065.97
2017-11-15T12:24:17.090Z,102053.00
2017-11-15T12:26:45.440Z,102062.45
2017-11-15T12:29:13.130Z,102063.38
2017-11-15T12:31:40.790Z,102057.10
2017-11-15T12:34:08.448Z,102054.42
2017-11-15T12:36:36.957Z,102054.37
2017-11-15T12:39:05.244Z,102052.57
2017-11-15T12:41:32.820Z,102047.58
2017-11-15T12:44:00.392Z,102053.28
2017-11-15T12:46:27.957Z,102053.70
2017-11-15T12:48:55.528Z,102055.07
2017-11-15T12:51:23.093Z,102053.89
2017-11-15T12:53:50.671Z,102045.73
2017-11-15T12:56:18.240Z,102041.59
2017-11-15T12:58:45.824Z,102044.33
2017-11-15T13:01:13.396Z,102039.06
2017-11-15T13:03:41.025Z,102046.49
2017-11-15T13:06:08.618Z,102054.45
2017-11-15T13:08:36.186Z,102049.44
2017-11-15T13:11:03.877Z,102050.06
2017-11-15T13:13:31.447Z,102041.67
2017-11-15T13:15:59.134Z,102035.05
2017-11-15T13:18:26.712Z,102041.70
2017-11-15T13:20:54.287Z,102044.02
2017-11-15T13:23:21.913Z,102052.46
2017-11-15T13:25:49.481Z,102041.75
2017-11-15T13:28:17.056Z,102046.48
2017-11-15T13:30:44.625Z,102049.78
2017-11-15T13:33:12.193Z,102047.77
2017-11-15T13:35:40.488Z,102049.09
2017-11-15T13:38:08.057Z,102043.42
2017-11-15T13:40:35.653Z,102047.11
2017-11-15T13:43:03.329Z,102055.89
2017-11-15T13:45:30.947Z,102056.41
2017-11-15T13:47:58.513Z,102053.64
2017-11-15T13:50:26.078Z,102062.90
2017-11-15T13:52:53.654Z,102056.17
2017-11-15T13:55:21.225Z,102054.80
2017-11-15T13:57:48.801Z,102044.97
2017-11-15T14:00:17.573Z,102039.39
2017-11-15T14:02:45.160Z,102041.60
2017-11-15T14:05:12.733Z,102047.26
2017-11-15T14:07:40.354Z,102054.70
2017-11-15T14:10:08.936Z,102061.75
2017-11-15T14:12:37.286Z,102065.11
2017-11-15T14:15:04.849Z,102058.50
2017-11-15T14:17:33.258Z,102061.34
2017-11-15T14:20:00.825Z,102060.06
2017-11-15T14:22:28.433Z,102060.37
2017-11-15T14:24:56.000Z,102056.63
2017-11-15T14:27:24.421Z,102059.67
2017-11-15T14:29:52.090Z,102062.17
2017-11-15T14:32:19.753Z,102064.76
2017-11-15T14:34:48.098Z,102063.84
2017-11-15T14:37:15.706Z,102064.16
2017-11-15T14:39:43.279Z,102063.23
2017-11-15T14:42:10.849Z,102063.39
2017-11-15T14:44:39.403Z,102058.66
2017-11-15T14:47:06.985Z,102060.41
2017-11-15T14:49:34.582Z,102057.14
2017-11-15T14:52:02.143Z,102064.16
2017-11-15T14:54:29.708Z,102070.48
2017-11-15T14:56:57.308Z,102060.75
2017-11-15T14:59:24.970Z,102065.14
2017-11-15T15:01:52.541Z,102061.17
2017-11-15T15:04:20.118Z,102055.91
2017-11-15T15:06:48.366Z,102065.81
2017-11-15T15:09:16.745Z,102067.63
2017-11-15T15:11:45.085Z,102068.81
2017-11-15T15:14:12.652Z,102062.42
2017-11-15T15:16:40.214Z,102067.28
2017-11-15T15:19:07.824Z,102070.48
2017-11-15T15:21:35.391Z,102075.52
2017-11-15T15:24:02.997Z,102070.47
2017-11-15T15:26:30.565Z,102071.02
2017-11-15T15:28:58.154Z,102072.32
2017-11-15T15:31:25.817Z,102077.34
2017-11-15T15:33:53.474Z,102079.28
2017-11-15T15:36:21.955Z,102079.30
2017-11-15T15:38:50.443Z,102082.90
2017-11-15T15:41:19.025Z,102087.48
2017-11-15T15:43:47.444Z,102093.66
2017-11-15T15:46:15.012Z,102087.80
2017-11-15T15:48:42.727Z,102091.05
2017-11-15T15:51:10.331Z,102090.81
2017-11-15T15:53:37.898Z,102094.74
2017-11-15T15:56:05.462Z,102087.81
2017-11-15T15:58:33.077Z,102095.01
2017-11-15T16:01:00.644Z,102098.66
2017-11-15T16:03:28.258Z,102095.78
2017-11-15T16:05:56.753Z,102096.98
2017-11-15T16:08:25.104Z,102093.57
2017-11-15T16:10:53.374Z,102090.05
2017-11-15T16:13:21.773Z,102096.61
2017-11-15T16:15:49.343Z,102091.97
2017-11-15T16:18:16.905Z,102096.93
2017-11-15T16:20:44.473Z,102094.74
2017-11-15T16:23:12.040Z,102096.91
2017-11-15T16:25:40.498Z,102092.50
2017-11-15T16:28:08.957Z,102093.27
2017-11-15T16:30:36.528Z,102103.43
2017-11-15T16:33:04.100Z,102102.58
2017-11-15T16:35:31.663Z,102103.13
2017-11-15T16:38:00.080Z,102111.50
2017-11-15T16:40:28.557Z,102113.87
2017-11-15T16:42:56.885Z,102111.84
2017-11-15T16:45:24.452Z,102114.69
2017-11-15T16:47:52.134Z,102110.76
2017-11-15T16:50:19.707Z,102111.51
2017-11-15T16:52:47.871Z,102112.41
2017-11-15T16:55:16.285Z,102108.67
2017-11-15T16:57:44.436Z,102117.60
2017-11-15T17:00:13.807Z,102116.88
2017-11-15T17:02:41.425Z,102118.98
2017-11-15T17:05:08.996Z,102114.11
2017-11-15T17:07:36.603Z,102124.84
2017-11-15T17:10:04.188Z,102125.07
2017-11-15T17:12:31.761Z,102126.42
2017-11-15T17:14:59.332Z,102124.64
2017-11-15T17:17:27.910Z,102121.59
2017-11-15T17:19:56.266Z,102119.88
2017-11-15T17:22:24.645Z,102127.38
2017-11-15T17:24:52.213Z,102126.48
2017-11-15T17:27:19.893Z,102128.05
2017-11-15T17:29:47.461Z,102127.59
2017-11-15T17:32:15.635Z,102127.27
2017-11-15T17:34:44.129Z,102126.87
2017-11-15T17:37:11.772Z,102130.00
2017-11-15T17:39:40.219Z,102130.53
2017-11-15T17:42:08.514Z,102130.56
2017-11-15T17:44:36.657Z,102130.42
2017-11-15T17:47:04.997Z,102130.17
2017-11-15T17:49:32.567Z,102137.23
2017-11-15T17:52:00.140Z,102133.42
2017-11-15T17:54:27.731Z,102130.85
2017-11-15T17:56:56.360Z,102133.62
2017-11-15T17:59:25.787Z,102134.97
2017-11-15T18:01:54.255Z,102132.08
2017-11-15T18:04:21.902Z,102137.38
2017-11-15T18:06:50.298Z,102136.93
2017-11-15T18:09:19.229Z,102132.89
2017-11-15T18:11:47.687Z,102135.45
2017-11-15T18:14:15.825Z,102129.74
2017-11-15T18:16:43.502Z,102130.44
2017-11-15T18:19:11.099Z,102130.83
2017-11-15T18:21:40.230Z,102128.89
2017-11-15T18:24:08.718Z,102125.91
2017-11-15T18:26:37.130Z,102125.03
2017-11-15T18:29:05.493Z,102128.52
2017-11-15T18:31:33.193Z,102124.66
2017-11-15T18:34:01.471Z,102131.41
2017-11-15T18:36:29.139Z,102128.87
2017-11-15T18:38:56.713Z,102133.60
2017-11-15T18:41:24.284Z,102136.78
2017-11-15T18:43:52.461Z,102137.88
2017-11-15T18:46:20.083Z,102139.97
2017-11-15T18:48:48.434Z,102139.23
2017-11-15T18:51:16.797Z,102137.35
2017-11-15T18:53:44.370Z,102136.92
2017-11-15T18:56:11.939Z,102139.21
2017-11-15T18:58:39.502Z,102142.27
2017-11-15T19:01:07.061Z,102139.47
2017-11-15T19:03:35.480Z,102140.28
2017-11-15T19:06:03.106Z,102135.66
2017-11-15T19:08:30.937Z,102132.45
2017-11-15T19:10:58.497Z,102143.70
2017-11-15T19:13:27.027Z,102146.08
2017-11-15T19:15:55.515Z,102154.67
2017-11-15T19:18:23.846Z,102150.88
2017-11-15T19:20:52.296Z,102151.14
2017-11-15T19:23:20.820Z,102156.75
2017-11-15T19:25:48.386Z,102161.18
2017-11-15T19:28:15.952Z,102164.72
2017-11-15T19:30:43.510Z,102163.50
2017-11-15T19:33:11.188Z,102163.66
2017-11-15T19:35:39.649Z,102167.49
2017-11-15T19:38:08.150Z,102162.36
2017-11-15T19:40:35.709Z,102158.73
2017-11-15T19:43:03.273Z,102160.75
2017-11-15T19:45:31.746Z,102156.23
2017-11-15T19:48:00.091Z,102160.19
2017-11-15T19:50:28.601Z,102158.30
2017-11-15T19:52:56.866Z,102155.92
2017-11-15T19:55:24.437Z,102162.70
2017-11-15T19:57:52.017Z,102159.13
2017-11-15T20:00:20.387Z,102163.23
2017-11-15T20:02:48.774Z,102163.86
2017-11-15T20:05:17.120Z,102161.34
2017-11-15T20:07:44.710Z,102168.00
2017-11-15T20:10:12.277Z,102167.53
2017-11-15T20:12:39.899Z,102162.96
2017-11-15T20:15:08.513Z,102168.17
2017-11-15T20:17:36.857Z,102160.75
2017-11-15T20:20:04.425Z,102166.25
2017-11-15T20:22:31.994Z,102163.49
2017-11-15T20:24:59.559Z,102168.10
2017-11-15T20:27:27.126Z,102168.02
2017-11-15T20:29:54.871Z,102164.62
2017-11-15T20:32:22.489Z,102163.84
2017-11-15T20:34:50.964Z,102166.33
2017-11-15T20:37:19.315Z,102166.11
2017-11-15T20:39:46.991Z,102162.19
2017-11-15T20:42:14.593Z,102162.29
2017-11-15T20:44:42.169Z,102161.55
2017-11-15T20:47:09.735Z,102162.22
2017-11-15T20:49:38.234Z,102154.85
2017-11-15T20:52:06.599Z,102164.72
2017-11-15T20:54:34.302Z,102164.38
2017-11-15T20:57:02.681Z,102172.90
2017-11-15T20:59:31.053Z,102168.72
2017-11-15T21:01:59.545Z,102166.44
2017-11-15T21:04:27.881Z,102163.31
2017-11-15T21:06:56.245Z,102161.98
2017-11-15T21:09:24.678Z,102163.59
2017-11-15T21:11:53.270Z,102160.14
2017-11-15T21:14:21.653Z,102157.83
2017-11-15T21:16:50.042Z,102160.97
2017-11-15T21:19:18.610Z,102159.38
2017-11-15T21:21:47.198Z,102155.84
2017-11-15T21:24:15.583Z,102162.75
2017-11-15T21:26:43.942Z,102168.38
2017-11-15T21:29:12.299Z,102168.50
2017-11-15T21:31:39.901Z,102167.73
2017-11-15T21:34:08.247Z,102164.50
2017-11-15T21:36:36.610Z,102164.31
2017-11-15T21:39:05.101Z,102164.81
2017-11-15T21:41:32.667Z,102165.87
2017-11-15T21:44:01.250Z,102163.98
2017-11-15T21:46:29.659Z,102161.31
2017-11-15T21:48:57.231Z,102166.31
2017-11-15T21:51:25.669Z,102168.70
2017-11-15T21:53:54.029Z,102167.74
2017-11-15T21:56:22.405Z,102170.45
2017-11-15T21:58:50.866Z,102175.13
2017-11-15T22:01:18.473Z,102164.58
2017-11-15T22:03:46.037Z,102167.72
2017-11-15T22:06:13.597Z,102169.28
2017-11-15T22:08:41.204Z,102172.09
2017-11-15T22:11:09.606Z,102170.13
2017-11-15T22:13:37.181Z,102166.45
2017-11-15T22:16:05.632Z,102174.02
2017-11-15T22:18:33.197Z,102172.64
2017-11-15T22:21:01.652Z,102174.17
2017-11-15T22:23:29.257Z,102169.48
2017-11-15T22:25:56.814Z,102169.75
2017-11-15T22:28:24.373Z,102173.88
2017-11-15T22:30:52.732Z,102173.25
2017-11-15T22:33:20.377Z,102172.13
2017-11-15T22:35:47.945Z,102164.21
2017-11-15T22:38:15.603Z,102170.59
2017-11-15T22:40:43.202Z,102170.06
2017-11-15T22:43:11.552Z,102172.48
2017-11-15T22:45:39.834Z,102170.08
2017-11-15T22:48:08.302Z,102172.63
2017-11-15T22:50:35.879Z,102166.94
2017-11-15T22:53:04.269Z,102170.11
2017-11-15T22:55:32.606Z,102171.47
2017-11-15T22:58:00.169Z,102167.98
2017-11-15T23:00:27.732Z,102167.89
2017-11-15T23:02:56.195Z,102169.80
2017-11-15T23:05:24.496Z,102163.09
2017-11-15T23:07:52.913Z,102167.29
2017-11-15T23:10:20.482Z,102168.77
2017-11-15T23:12:49.026Z,102168.86
2017-11-15T23:15:17.377Z,102165.84
2017-11-15T23:17:45.721Z,102168.78
2017-11-15T23:20:13.284Z,102169.53
2017-11-15T23:22:41.669Z,102172.48
2017-11-15T23:25:10.029Z,102167.98
2017-11-15T23:27:38.520Z,102167.00
2017-11-15T23:30:06.092Z,102163.72
2017-11-15T23:32:33.652Z,102164.20
2017-11-15T23:35:01.949Z,102166.31
2017-11-15T23:37:29.562Z,102163.33
2017-11-15T23:39:57.146Z,102160.50
2017-11-15T23:42:24.735Z,102149.17
2017-11-15T23:44:52.337Z,102145.41
2017-11-15T23:47:19.944Z,102149.38
2017-11-15T23:49:47.513Z,102153.09
2017-11-15T23:52:15.089Z,102147.02
2017-11-15T23:54:42.673Z,102146.68
2017-11-15T23:57:10.282Z,102150.53
2017-11-15T23:59:37.844Z,102145.35
